Latest Weather Observations for Samuel Hill

IDQ60801

Issued at 10:02 am EST Wednesday 31 August 2016 (issued every 30 minutes, with the page automatically refreshed every 10 minutes)

About weather observations | Map of weather stations | Latest weather observations for QLD | Other Formats
Station Details ID: 033308 Name: SAMUEL HILL AERO Lat: -22.74 Lon: 150.66 Height: 31.0 m
Data from the previous 72 hours. | See also: Recent months at Samuel Hill
Date/Time
EST
Temp
°C
App
Temp
°C
Dew
Point
°C
Rel
Hum
%
Delta-T
°C
Wind Press
QNH
hPa
Press
MSL
hPa
Rain since
9am
mm
Dir  Spd
km/h
Gust
km/h
Spd
kts
Gust
kts
31/10:00am 23.5 22.3 13.9 55 5.6 E 13 20 7 11 1024.3 1024.3 0.0
31/09:30am 23.0 22.5 14.8 60 4.8 E 11 15 6 8 1024.3 1024.3 0.0
31/09:00am 22.0 21.6 15.1 65 4.1 E 11 17 6 9 1024.5 1024.5 0.0
31/08:30am 21.1 22.7 16.9 77 2.6 SE 4 7 2 4 1024.7 1024.7 0.0
31/08:00am 20.0 22.3 16.8 82 1.9 CALM 0 0 0 0 1024.5 1024.5 0.0
31/07:30am 19.0 20.9 16.8 87 1.3 S 2 6 1 3 1024.3 1024.3 0.0
31/07:00am 17.8 20.1 16.7 93 0.7 CALM 0 0 0 0 1023.9 1023.9 0.0
31/06:30am 17.2 18.8 15.9 92 0.8 SSE 2 7 1 4 1023.6 1023.6 0.0
31/06:00am 16.7 17.3 15.4 92 0.8 W 6 7 3 4 1023.2 1023.2 0.0
31/05:30am 16.5 17.7 15.0 91 0.9 W 2 7 1 4 1023.1 1023.1 0.0
31/05:00am 16.8 18.5 15.2 90 0.9 CALM 0 0 0 0 1022.9 1022.9 0.0
31/04:30am 17.5 19.5 16.0 91 0.9 CALM 0 0 0 0 1022.7 1022.7 0.0
31/04:00am 17.5 19.5 16.0 91 0.9 CALM 0 0 0 0 1022.8 1022.8 0.0
31/03:30am 17.4 18.1 15.7 90 1.0 SSW 6 9 3 5 1022.6 1022.6 0.0
31/03:25am 17.1 18.6 15.6 91 0.9 WSW 2 9 1 5 1022.5 1022.5 0.0
31/03:08am 17.2 19.0 15.5 90 1.0 CALM 0 0 0 0 1022.6 1022.6 0.0
31/03:00am 17.4 19.3 15.7 90 1.0 CALM 0 0 0 0 1022.7 1022.7 0.0
31/02:30am 17.7 19.7 16.0 90 1.0 CALM 0 0 0 0 1023.1 1023.1 0.0
31/02:00am 17.9 19.9 16.1 89 1.1 CALM 0 0 0 0 1023.4 1023.4 0.0
31/01:30am 18.1 19.0 16.1 88 1.2 W 6 7 3 4 1024.1 1024.1 0.0
31/01:00am 17.8 19.8 16.0 89 1.1 CALM 0 7 0 4 1024.2 1024.2 0.0
31/12:30am 17.8 18.7 16.1 90 1.0 WNW 6 7 3 4 1024.4 1024.4 0.0
31/12:00am 17.9 19.5 15.9 88 1.2 E 2 6 1 3 1024.6 1024.6 0.0
 
Date/Time
EST
Temp
°C
App
Temp
°C
Dew
Point
°C
Rel
Hum
%
Delta-T
°C
Wind Press
QNH
hPa
Press
MSL
hPa
Rain since
9am
mm
Dir  Spd
km/h
Gust
km/h
Spd
kts
Gust
kts
30/11:30pm 17.7 19.4 16.2 91 0.9 ENE 2 7 1 4 1024.5 1024.5 0.0
30/11:00pm 17.4 18.9 15.6 89 1.1 ESE 2 7 1 4 1024.8 1024.8 0.0
30/10:30pm 17.7 19.4 15.3 86 1.4 CALM 0 0 0 0 1024.9 1024.9 0.0
30/10:00pm 18.6 19.5 16.0 85 1.5 SSE 6 7 3 4 1025.0 1025.0 0.0
30/09:30pm 18.8 19.7 16.0 84 1.7 SSE 6 7 3 4 1025.1 1025.1 0.0
30/09:00pm 19.1 19.9 16.3 84 1.7 SE 7 9 4 5 1025.0 1025.0 0.0
30/08:30pm 19.4 19.7 16.1 81 2.0 SE 9 13 5 7 1024.9 1024.9 0.0
30/08:00pm 19.4 20.1 16.1 81 2.0 SE 7 11 4 6 1024.7 1024.7 0.0
30/07:30pm 19.8 20.1 16.1 79 2.2 SE 9 13 5 7 1024.4 1024.4 0.0
30/07:00pm 20.2 20.6 16.2 78 2.4 ESE 9 15 5 8 1024.2 1024.2 0.0
30/06:30pm 20.4 20.2 15.8 75 2.7 SE 11 17 6 9 1023.9 1023.9 0.0
30/06:00pm 20.5 20.2 15.5 73 3.0 SE 11 19 6 10 1023.7 1023.7 0.0
30/05:30pm 20.8 20.1 15.4 71 3.2 SE 13 22 7 12 1023.4 1023.4 0.0
30/05:00pm 21.1 20.4 15.4 70 3.4 ESE 13 19 7 10 1023.3 1023.3 0.0
30/04:30pm 21.5 20.2 14.9 66 3.9 ESE 15 28 8 15 1023.0 1023.0 0.0
30/04:00pm 22.1 21.1 14.5 62 4.5 ESE 13 22 7 12 1022.9 1022.9 0.0
30/03:30pm 22.4 20.7 13.5 57 5.2 E 15 24 8 13 1022.7 1022.7 0.0
30/03:00pm 22.9 20.8 13.7 56 5.3 E 17 24 9 13 1022.9 1022.9 0.0
30/02:30pm 23.1 21.5 13.8 55 5.4 E 15 22 8 12 1023.0 1023.0 0.0
30/02:00pm 22.7 20.7 14.0 58 5.1 E 17 24 9 13 1023.4 1023.4 0.0
30/01:30pm 22.7 20.6 13.7 56 5.2 ESE 17 24 9 13 1023.7 1023.7 0.0
30/01:00pm 23.3 21.3 13.8 55 5.5 E 17 26 9 14 1024.0 1024.0 0.0
30/12:30pm 23.7 20.8 12.4 49 6.5 ESE 19 30 10 16 1024.2 1024.2 0.0
30/12:00pm 23.4 20.6 12.7 51 6.1 ESE 19 32 10 17 1024.6 1024.6 0.0
30/11:30am 23.2 20.4 12.5 51 6.1 E 19 28 10 15 1025.1 1025.1 0.0
30/11:00am 23.1 20.9 13.3 54 5.6 E 17 28 9 15 1025.7 1025.7 0.0
30/10:30am 22.6 20.0 12.0 51 6.0 ENE 17 26 9 14 1025.9 1025.9 0.0
30/10:00am 22.5 20.4 12.4 52 5.7 E 15 22 8 12 1025.7 1025.7 0.0
30/09:30am 22.0 19.5 12.3 54 5.5 ENE 17 26 9 14 1025.7 1025.7 0.0
30/09:00am 21.4 19.8 13.8 62 4.4 E 15 24 8 13 1025.6 1025.6 0.0
30/08:30am 21.0 20.7 14.4 66 3.9 E 9 13 5 7 1025.4 1025.4 0.0
30/08:00am 20.2 20.1 13.9 67 3.6 E 7 11 4 6 1025.1 1025.1 0.0
30/07:30am 19.4 18.7 14.2 72 3.0 E 11 19 6 10 1024.9 1024.9 0.0
30/07:00am 15.9 17.2 15.1 95 0.5 ESE 2 6 1 3 1024.4 1024.4 0.0
30/06:30am 15.0 16.3 14.2 95 0.5 CALM 0 0 0 0 1024.0 1024.0 0.0
30/06:00am 14.3 15.0 13.3 94 0.6 SE 2 7 1 4 1023.7 1023.7 0.0
30/05:30am 14.6 15.8 13.8 95 0.4 CALM 0 0 0 0 1023.5 1023.5 0.0
30/05:00am 14.3 15.4 13.5 95 0.4 CALM 0 0 0 0 1023.2 1023.2 0.0
30/04:30am 13.9 14.1 13.1 95 0.4 SSW 4 7 2 4 1023.0 1023.0 0.0
30/04:00am 12.7 12.5 11.8 94 0.5 S 4 6 2 3 1022.6 1022.6 0.0
30/03:30am 11.7 10.5 10.3 91 0.7 S 7 9 4 5 1022.3 1022.3 0.0
30/03:00am 12.4 12.6 10.6 89 0.9 CALM 0 0 0 0 1022.4 1022.4 0.0
30/02:30am 15.1 14.6 13.8 92 0.7 SSE 9 11 5 6 1022.6 1022.6 0.0
30/02:00am 12.8 11.6 11.7 93 0.6 SSE 9 11 5 6 1022.9 1022.9 0.0
30/01:30am 12.3 12.6 11.0 92 0.7 CALM 0 0 0 0 1023.2 1023.2 0.0
30/01:00am 12.4 11.6 11.0 91 0.7 SSE 6 11 3 6 1023.4 1023.4 0.0
30/12:30am 12.8 12.0 11.2 90 0.8 S 6 7 3 4 1023.5 1023.5 0.0
30/12:00am 14.3 13.8 12.7 90 0.9 SSE 7 9 4 5 1023.5 1023.5 0.0
 
Date/Time
EST
Temp
°C
App
Temp
°C
Dew
Point
°C
Rel
Hum
%
Delta-T
°C
Wind Press
QNH
hPa
Press
MSL
hPa
Rain since
9am
mm
Dir  Spd
km/h
Gust
km/h
Spd
kts
Gust
kts
29/11:30pm 14.4 14.4 12.4 88 1.1 SE 4 7 2 4 1023.6 1023.6 0.0
29/11:00pm 13.5 12.7 11.6 88 1.0 SE 7 9 4 5 1023.7 1023.7 0.0
29/10:30pm 14.2 13.8 12.4 89 1.0 SE 6 7 3 4 1023.8 1023.8 0.0
29/10:00pm 15.5 15.4 13.9 90 0.9 SSE 7 7 4 4 1024.0 1024.0 0.0
29/09:30pm 15.7 15.7 14.2 91 0.9 SE 7 9 4 5 1023.9 1023.9 0.0
29/09:00pm 15.8 15.8 14.2 90 0.9 SSE 7 9 4 5 1024.0 1024.0 0.0
29/08:30pm 16.0 15.7 14.4 90 0.9 SSE 9 11 5 6 1023.9 1023.9 0.0
29/08:00pm 16.2 16.4 14.6 90 0.9 SSE 7 9 4 5 1024.0 1024.0 0.0
29/07:30pm 16.6 16.8 14.8 89 1.0 SSE 7 9 4 5 1023.9 1023.9 0.0
29/07:00pm 17.1 17.0 14.9 87 1.3 SE 9 9 5 5 1023.7 1023.7 0.0
29/06:30pm 17.7 17.6 15.0 84 1.6 SE 9 19 5 10 1023.5 1023.5 0.0
29/06:00pm 18.6 18.5 14.9 79 2.1 SE 9 15 5 8 1023.4 1023.4 0.0
29/05:30pm 19.7 18.4 14.9 74 2.8 SE 15 24 8 13 1023.1 1023.1 0.0
29/05:00pm 20.3 19.1 15.1 72 3.1 ESE 15 22 8 12 1022.9 1022.9 0.0
29/04:30pm 20.9 18.9 13.8 64 4.1 ESE 17 26 9 14 1022.7 1022.7 0.0
29/04:00pm 21.3 19.7 14.0 63 4.2 ESE 15 22 8 12 1022.6 1022.6 0.0
29/03:30pm 22.7 21.3 13.5 56 5.3 E 13 20 7 11 1022.4 1022.4 0.0
29/03:00pm 22.5 19.7 12.7 54 5.6 ENE 19 26 10 14 1022.5 1022.5 0.0
29/02:30pm 22.1 20.1 12.6 55 5.4 ESE 15 26 8 14 1022.8 1022.8 0.0
29/02:00pm 22.1 19.7 12.6 55 5.4 ESE 17 24 9 13 1023.0 1023.0 0.0
29/01:30pm 22.4 20.7 13.5 57 5.2 SE 15 26 8 14 1023.0 1023.0 0.0
29/01:00pm 22.5 20.0 12.2 52 5.8 ESE 17 24 9 13 1023.3 1023.3 0.0
29/12:30pm 21.6 18.7 12.2 55 5.3 SE 19 30 10 16 1023.5 1023.5 0.0
29/12:00pm 23.3 20.1 12.0 49 6.4 ESE 20 32 11 17 1023.8 1023.8 0.0
29/11:30am 22.2 19.3 12.2 53 5.7 ESE 19 26 10 14 1024.1 1024.1 0.0
29/11:00am 21.7 19.3 12.8 57 5.1 SE 17 28 9 15 1024.3 1024.3 0.0
29/10:30am 22.7 21.3 14.5 60 4.8 SE 15 22 8 12 1024.3 1024.3 0.0
29/10:00am 21.7 20.0 14.8 65 4.1 SE 17 26 9 14 1024.3 1024.3 0.0
29/09:30am 21.0 20.5 14.9 68 3.6 SE 11 17 6 9 1024.6 1024.6 0.0
29/09:00am 19.6 18.9 14.4 72 3.0 SSE 11 15 6 8 1024.6 1024.6 0.0
29/08:30am 17.2 16.0 12.9 76 2.4 SSE 11 17 6 9 1024.5 1024.5 0.0
29/08:00am 14.0 13.5 11.9 87 1.1 SW 6 7 3 4 1024.4 1024.4 0.0
29/07:30am 12.7 11.7 10.4 86 1.2 SW 6 9 3 5 1023.9 1023.9 0.0
29/07:00am 11.6 10.3 10.0 90 0.8 SSW 7 9 4 5 1023.3 1023.3 0.0
29/06:30am 10.5 9.3 9.4 93 0.5 ENE 6 11 3 6 1022.9 1022.9 0.0
29/06:00am 10.5 9.3 9.6 94 0.4 SSW 6 9 3 5 1022.5 1022.5 0.0
29/05:30am 9.8 8.5 9.2 96 0.3 S 6 7 3 4 1022.3 1022.3 0.0
29/05:00am 9.6 8.6 9.0 96 0.3 SSE 4 9 2 5 1022.0 1022.0 0.0
29/04:30am 8.4 7.9 7.8 96 0.3 CALM 0 0 0 0 1021.9 1021.9 0.0
29/04:00am 7.2 6.4 6.3 94 0.4 CALM 0 0 0 0 1021.9 1021.9 0.0
29/03:30am 7.2 6.4 6.3 94 0.4 CALM 0 0 0 0 1021.8 1021.8 0.0
29/03:00am 7.4 6.6 6.5 94 0.4 CALM 0 0 0 0 1021.8 1021.8 0.0
29/02:30am 7.2 6.4 6.3 94 0.4 CALM 0 0 0 0 1021.8 1021.8 0.0
29/02:00am 7.3 6.4 6.2 93 0.5 CALM 0 0 0 0 1022.0 1022.0 0.0
29/01:30am 7.6 6.8 6.7 94 0.4 CALM 0 0 0 0 1022.5 1022.5 0.0
29/01:00am 7.4 6.6 6.3 93 0.5 CALM 0 0 0 0 1022.6 1022.6 0.0
29/12:30am 7.7 6.9 6.6 93 0.5 CALM 0 0 0 0 1022.6 1022.6 0.0
29/12:00am 7.8 7.0 6.7 93 0.5 CALM 0 0 0 0 1022.5 1022.5 0.0
 
Date/Time
EST
Temp
°C
App
Temp
°C
Dew
Point
°C
Rel
Hum
%
Delta-T
°C
Wind Press
QNH
hPa
Press
MSL
hPa
Rain since
9am
mm
Dir  Spd
km/h
Gust
km/h
Spd
kts
Gust
kts
28/11:30pm 8.0 7.3 6.9 93 0.5 CALM 0 0 0 0 1022.5 1022.5 0.0
28/11:00pm 7.9 7.1 6.7 92 0.6 CALM 0 0 0 0 1022.6 1022.6 0.0
28/10:30pm 8.5 7.9 7.4 93 0.5 CALM 0 0 0 0 1022.6 1022.6 0.0
28/10:00pm 8.7 8.1 7.5 92 0.6 CALM 0 0 0 0 1022.6 1022.6 0.0
28/09:30pm 9.3 8.9 8.2 93 0.5 CALM 0 0 0 0 1022.6 1022.6 0.0
28/09:00pm 9.2 8.7 7.8 91 0.7 CALM 0 0 0 0 1022.6 1022.6 0.0
28/08:30pm 9.6 9.1 7.9 89 0.8 CALM 0 0 0 0 1022.6 1022.6 0.0
28/08:00pm 10.5 10.2 8.8 89 0.8 CALM 0 0 0 0 1022.7 1022.7 0.0
28/07:30pm 10.9 10.6 8.7 86 1.1 CALM 0 0 0 0 1022.6 1022.6 0.0
28/07:00pm 11.9 11.8 9.5 85 1.2 CALM 0 0 0 0 1022.3 1022.3 0.0
28/06:30pm 12.8 12.6 9.1 78 1.9 CALM 0 0 0 0 1022.0 1022.0 0.0
28/06:00pm 15.1 13.9 9.5 69 2.9 SSE 6 7 3 4 1021.8 1021.8 0.0
28/05:30pm 17.4 15.5 9.1 58 4.3 SE 9 13 5 7 1021.7 1021.7 0.0
28/05:00pm 18.7 16.5 9.2 54 5.0 ESE 11 17 6 9 1021.5 1021.5 0.0
28/04:30pm 19.1 15.5 6.6 44 6.3 ESE 15 19 8 10 1021.5 1021.5 0.0
28/04:00pm 19.7 16.6 7.1 44 6.4 ESE 13 20 7 11 1021.3 1021.3 0.0
28/03:30pm 20.2 16.9 7.9 45 6.4 ESE 15 22 8 12 1021.2 1021.2 0.0
28/03:00pm 20.2 16.5 6.2 40 7.0 ESE 15 20 8 11 1021.0 1021.0 0.0
28/02:30pm 20.8 17.2 5.2 36 7.7 ESE 13 20 7 11 1021.3 1021.3 0.0
28/02:00pm 21.1 17.1 5.1 35 7.9 ESE 15 26 8 14 1021.5 1021.5 0.0
28/01:30pm 20.8 17.0 5.6 37 7.5 ESE 15 24 8 13 1021.7 1021.7 0.0
28/01:00pm 21.2 16.9 3.4 31 8.5 ESE 15 20 8 11 1022.1 1022.1 0.0
28/12:30pm 21.3 17.5 4.0 32 8.4 SSE 13 22 7 12 1022.3 1022.3 0.0
28/12:00pm 20.9 17.7 4.9 35 7.8 SE 11 20 6 11 1022.9 1022.9 0.0
28/11:30am 20.4 16.8 4.8 36 7.6 SE 13 28 7 15 1023.2 1023.2 0.0
28/11:00am 20.1 16.1 5.0 37 7.3 SE 15 24 8 13 1023.7 1023.7 0.0
28/10:30am 19.6 16.4 7.0 44 6.4 SE 13 20 7 11 1024.0 1024.0 0.0

Other Formats:

Comma delimited format used in spreadsheet applications
http://www.bom.gov.au/fwo/IDQ60801/IDQ60801.94370.axf

JavaScript Object Notation format (JSON) in row-major order
http://www.bom.gov.au/fwo/IDQ60801/IDQ60801.94370.json